Haviland, Kansas
Current Conditions -  °F | °C
As of 4:55 AM on Sunday 23 Nov 2014 (Local Time) from KPTT Reporting Station
Overcast Overcast  
Wind Chill: 50°   Ceiling: 600
Heat Index: 50°   Visibility: 10mi
Dew Point: 46°   Wind: 12mph
Humidity: 87%   Direction: 170°S
Pressure: 29.42"   Gusts: NA
Location:  37.62°N, 99.11°W
Report Text: KPTT 231055Z AUTO 17010KT 10SM OVC006 10/08 A2942 RMK AO2
Loading
Personal Weather Stations






























Interactive Weather Map New forecast layout! Learn more

10-Day Weather Forecast

Advertisements
Track Severe Weather on mobile